Weather at BURANOS Aires UL

Public forecast

Using degrees Celsius for public forecast. Weather courtesy of forecast.io.

Closest aviation weather report (METAR) to BURANOS Aires UL

Closest report is Václav Havel Airport Prague, 10.2 nm (18.8 km) ENE. Retrieved 2021/09/16 11:00 UTC (15 minutes ago):

LKPR 161100Z 24005KT 190V300 9999 SCT024 SCT033 22/16 Q1014 NOSIG

Closest aviation forecast (TAF) to BURANOS Aires UL

Closest forecast is Václav Havel Airport Prague, 10.2 nm (18.8 km) ENE. Retrieved 2021/09/16 06:09 UTC (5 hours ago):

TAF LKPR 160500Z 1606/1712 25010KT 9999 BKN030 TEMPO 1606/1618 7000 SHRA SCT020TCU PROB30 TEMPO 1609/1616 31012G22KT 3000 TSRA SCT017CB BKN020 BECMG 1618/1620 32009KT